createdAt,value
2023-01-17T00:01:17.023Z,98459.53
2023-01-17T00:04:02.632Z,98471.84
2023-01-17T00:06:47.763Z,98482.53
2023-01-17T00:09:33.682Z,98492.38
2023-01-17T00:12:02.257Z,98493.41
2023-01-17T00:14:29.035Z,98499.75
2023-01-17T00:16:55.612Z,98509.56
2023-01-17T00:19:40.779Z,98513.25
2023-01-17T00:22:30.195Z,98514.50
2023-01-17T00:25:15.514Z,98514.50
2023-01-17T00:27:42.003Z,98520.81
2023-01-17T00:30:10.146Z,98516.50
2023-01-17T00:32:36.666Z,98519.16
2023-01-17T00:35:03.171Z,98514.84
2023-01-17T00:37:29.663Z,98514.66
2023-01-17T00:39:56.121Z,98510.34
2023-01-17T00:42:22.569Z,98511.16
2023-01-17T00:45:07.894Z,98505.63
2023-01-17T00:47:53.206Z,98500.28
2023-01-17T00:50:38.439Z,98495.16
2023-01-17T00:53:23.744Z,98504.00
2023-01-17T00:56:09.078Z,98496.81
2023-01-17T00:58:54.319Z,98504.00
2023-01-17T01:01:39.365Z,98509.53
2023-01-17T01:04:24.653Z,98514.03
2023-01-17T01:07:09.519Z,98517.69
2023-01-17T01:09:54.435Z,98524.88
2023-01-17T01:12:39.783Z,98530.41
2023-01-17T01:15:25.661Z,98540.06
2023-01-17T01:18:10.578Z,98538.59
2023-01-17T01:20:55.926Z,98542.25
2023-01-17T01:23:41.308Z,98539.81
2023-01-17T01:26:26.593Z,98554.97
2023-01-17T01:29:11.411Z,98556.81
2023-01-17T01:31:56.761Z,98564.00
2023-01-17T01:34:23.268Z,98564.00
2023-01-17T01:36:50.902Z,98573.81
2023-01-17T01:39:17.430Z,98587.16
2023-01-17T01:41:43.970Z,98584.47
2023-01-17T01:44:41.436Z,98589.00
2023-01-17T01:47:29.509Z,98607.47
2023-01-17T01:49:58.440Z,98610.97
2023-01-17T01:52:29.698Z,98626.78
2023-01-17T01:55:02.328Z,98624.09
2023-01-17T01:57:33.953Z,98631.28
2023-01-17T02:00:31.503Z,98629.66
2023-01-17T02:03:02.500Z,98623.09
2023-01-17T02:05:29.301Z,98622.25
2023-01-17T02:08:03.274Z,98615.28
2023-01-17T02:10:37.889Z,98620.63
2023-01-17T02:13:05.538Z,98616.94
2023-01-17T02:15:56.771Z,98612.00
2023-01-17T02:18:53.097Z,98617.34
2023-01-17T02:21:26.233Z,98616.31
2023-01-17T02:24:20.352Z,98615.66
2023-01-17T02:26:58.184Z,98628.00
2023-01-17T02:29:42.055Z,98628.00
2023-01-17T02:32:16.396Z,98630.66
2023-01-17T02:35:10.674Z,98636.97
2023-01-17T02:37:57.821Z,98636.16
2023-01-17T02:40:38.260Z,98639.03
2023-01-17T02:43:10.716Z,98648.66
2023-01-17T02:45:37.959Z,98662.81
2023-01-17T02:48:08.108Z,98668.16
2023-01-17T02:51:21.022Z,98663.84
2023-01-17T02:53:50.154Z,98660.16
2023-01-17T02:56:39.567Z,98665.69
2023-01-17T02:59:21.316Z,98661.19
2023-01-17T03:01:59.574Z,98662.00
2023-01-17T03:05:06.790Z,98667.53
2023-01-17T03:07:34.244Z,98671.66
2023-01-17T03:10:03.553Z,98672.66
2023-01-17T03:12:32.151Z,98674.50
2023-01-17T03:14:58.720Z,98672.03
2023-01-17T03:17:30.992Z,98673.03
2023-01-17T03:19:57.819Z,98676.91
2023-01-17T03:22:24.509Z,98674.25
2023-01-17T03:24:50.993Z,98673.41
2023-01-17T03:27:17.501Z,98678.09
2023-01-17T03:29:44.023Z,98680.75
2023-01-17T03:32:10.520Z,98681.78
2023-01-17T03:34:37.080Z,98680.97
2023-01-17T03:37:03.610Z,98683.63
2023-01-17T03:39:30.133Z,98684.44
2023-01-17T03:41:56.707Z,98697.78
2023-01-17T03:44:23.187Z,98703.13
2023-01-17T03:46:49.717Z,98713.78
2023-01-17T03:49:16.713Z,98711.13
2023-01-17T03:51:43.289Z,98707.63
2023-01-17T03:54:10.120Z,98700.25
2023-01-17T03:56:36.652Z,98694.09
2023-01-17T03:59:03.244Z,98695.75
2023-01-17T04:01:29.787Z,98695.75
2023-01-17T04:03:56.365Z,98689.59
2023-01-17T04:06:22.921Z,98695.75
2023-01-17T04:08:49.475Z,98695.13
2023-01-17T04:11:15.973Z,98690.59
2023-01-17T04:13:42.467Z,98692.44
2023-01-17T04:16:15.441Z,98695.28
2023-01-17T04:18:42.040Z,98698.78
2023-01-17T04:21:08.659Z,98687.28
2023-01-17T04:23:35.469Z,98691.16
2023-01-17T04:26:03.579Z,98697.31
2023-01-17T04:28:30.195Z,98693.81
2023-01-17T04:31:00.275Z,98697.47
2023-01-17T04:33:26.977Z,98698.50
2023-01-17T04:35:54.132Z,98695.84
2023-01-17T04:38:20.898Z,98689.88
2023-01-17T04:40:48.529Z,98708.53
2023-01-17T04:43:16.037Z,98697.88
2023-01-17T04:45:42.785Z,98703.22
2023-01-17T04:48:12.528Z,98703.22
2023-01-17T04:50:39.762Z,98704.84
2023-01-17T04:53:06.298Z,98703.22
2023-01-17T04:55:32.880Z,98709.34
2023-01-17T04:57:59.419Z,98702.38
2023-01-17T05:00:25.966Z,98704.19
2023-01-17T05:02:52.542Z,98695.38
2023-01-17T05:05:19.028Z,98700.69
2023-01-17T05:07:53.305Z,98698.22
2023-01-17T05:10:19.829Z,98698.22
2023-01-17T05:12:56.994Z,98702.91
2023-01-17T05:15:24.450Z,98702.91
2023-01-17T05:17:52.732Z,98711.91
2023-01-17T05:20:20.371Z,98717.25
2023-01-17T05:22:56.410Z,98715.75
2023-01-17T05:25:31.321Z,98715.75
2023-01-17T05:28:01.289Z,98722.75
2023-01-17T05:30:32.751Z,98722.09
2023-01-17T05:32:59.555Z,98728.22
2023-01-17T05:35:32.615Z,98723.94
2023-01-17T05:37:59.381Z,98729.25
2023-01-17T05:40:28.941Z,98729.25
2023-01-17T05:42:57.844Z,98734.59
2023-01-17T05:45:27.427Z,98740.94
2023-01-17T05:47:55.341Z,98742.59
2023-01-17T05:50:25.667Z,98741.75
2023-01-17T05:52:54.724Z,98741.94
2023-01-17T05:55:22.128Z,98742.78
2023-01-17T05:57:49.248Z,98738.47
2023-01-17T06:00:16.822Z,98750.94
2023-01-17T06:02:44.432Z,98749.94
2023-01-17T06:05:11.387Z,98749.94
2023-01-17T06:07:38.187Z,98747.44
2023-01-17T06:10:05.522Z,98753.78
2023-01-17T06:12:32.384Z,98760.97
2023-01-17T06:14:59.007Z,98750.31
2023-01-17T06:17:25.527Z,98758.28
2023-01-17T06:19:52.007Z,98759.31
2023-01-17T06:22:18.549Z,98761.97
2023-01-17T06:24:45.176Z,98770.13
2023-01-17T06:27:11.763Z,98769.31
2023-01-17T06:29:38.246Z,98768.28
2023-01-17T06:32:05.253Z,98766.66
2023-01-17T06:34:31.816Z,98763.16
2023-01-17T06:36:58.369Z,98761.50
2023-01-17T06:39:25.117Z,98773.16
2023-01-17T06:41:51.609Z,98770.50
2023-01-17T06:44:18.121Z,98769.66
2023-01-17T06:46:45.078Z,98774.00
2023-01-17T06:49:11.700Z,98779.34
2023-01-17T06:51:38.227Z,98778.47
2023-01-17T06:54:04.804Z,98774.00
2023-01-17T06:56:32.309Z,98772.31
2023-01-17T06:58:58.981Z,98774.00
2023-01-17T07:01:25.623Z,98772.16
2023-01-17T07:03:55.247Z,98778.31
2023-01-17T07:06:21.867Z,98774.63
2023-01-17T07:08:48.873Z,98780.16
2023-01-17T07:11:15.573Z,98781.00
2023-01-17T07:13:42.084Z,98778.31
2023-01-17T07:16:09.079Z,98782.00
2023-01-17T07:18:35.632Z,98780.31
2023-01-17T07:21:02.139Z,98780.31
2023-01-17T07:23:28.652Z,98775.00
2023-01-17T07:26:00.231Z,98777.84
2023-01-17T07:28:28.194Z,98777.03
2023-01-17T07:30:54.849Z,98778.88
2023-01-17T07:33:21.754Z,98782.34
2023-01-17T07:35:48.460Z,98787.03
2023-01-17T07:38:17.757Z,98787.03
2023-01-17T07:40:45.107Z,98783.53
2023-01-17T07:43:15.269Z,98787.22
2023-01-17T07:45:46.644Z,98789.88
2023-01-17T07:48:13.645Z,98794.38
2023-01-17T07:50:40.204Z,98788.22
2023-01-17T07:53:06.723Z,98787.22
2023-01-17T07:55:33.538Z,98791.72
2023-01-17T07:58:02.286Z,98791.06
2023-01-17T08:00:29.454Z,98796.38
2023-01-17T08:02:57.976Z,98795.56
2023-01-17T08:05:25.270Z,98797.22
2023-01-17T08:07:52.085Z,98802.53
2023-01-17T08:10:18.834Z,98791.06
2023-01-17T08:12:49.987Z,98794.72
2023-01-17T08:15:18.056Z,98799.03
2023-01-17T08:17:48.843Z,98793.91
2023-01-17T08:20:16.586Z,98797.41
2023-01-17T08:22:43.090Z,98807.03
2023-01-17T08:25:10.096Z,98806.22
2023-01-17T08:27:36.837Z,98820.38
2023-01-17T08:30:04.181Z,98810.72
2023-01-17T08:32:30.696Z,98816.06
2023-01-17T08:34:57.434Z,98807.03
2023-01-17T08:37:24.466Z,98806.22
2023-01-17T08:39:51.173Z,98817.69
2023-01-17T08:42:18.072Z,98819.38
2023-01-17T08:44:44.641Z,98818.38
2023-01-17T08:47:11.213Z,98810.38
2023-01-17T08:49:37.731Z,98820.84
2023-01-17T08:52:05.276Z,98825.00
2023-01-17T08:54:31.837Z,98829.97
2023-01-17T08:56:58.487Z,98834.09
2023-01-17T08:59:25.021Z,98838.25
2023-01-17T09:01:52.544Z,98838.88
2023-01-17T09:04:19.317Z,98843.88
2023-01-17T09:06:48.189Z,98840.88
2023-01-17T09:09:16.907Z,98843.19
2023-01-17T09:11:43.449Z,98853.47
2023-01-17T09:14:12.928Z,98850.28
2023-01-17T09:16:39.467Z,98855.09
2023-01-17T09:19:06.031Z,98858.69
2023-01-17T09:21:32.746Z,98853.81
2023-01-17T09:23:59.253Z,98863.94
2023-01-17T09:26:29.299Z,98861.91
2023-01-17T09:28:56.795Z,98858.88
2023-01-17T09:31:24.109Z,98863.69
2023-01-17T09:33:52.024Z,98862.50
2023-01-17T09:36:18.883Z,98860.25
2023-01-17T09:38:46.185Z,98867.09
2023-01-17T09:41:29.251Z,98868.56
2023-01-17T09:44:07.738Z,98864.69
2023-01-17T09:46:41.886Z,98872.34
2023-01-17T09:49:39.174Z,98875.66
2023-01-17T09:52:08.526Z,98872.63
2023-01-17T09:54:40.735Z,98870.59
2023-01-17T09:57:53.036Z,98880.91
2023-01-17T10:00:47.292Z,98880.53
2023-01-17T10:03:22.842Z,98882.69
2023-01-17T10:06:13.006Z,98880.28
2023-01-17T10:08:48.439Z,98885.72
2023-01-17T10:11:43.154Z,98876.50
2023-01-17T10:14:47.242Z,98883.94
2023-01-17T10:17:54.206Z,98880.09
2023-01-17T10:20:50.894Z,98879.91
2023-01-17T10:23:38.143Z,98891.59
2023-01-17T10:26:12.444Z,98892.41
2023-01-17T10:28:48.594Z,98882.97
2023-01-17T10:31:26.515Z,98890.13
2023-01-17T10:33:58.277Z,98889.28
2023-01-17T10:36:27.918Z,98884.16
2023-01-17T10:39:01.517Z,98887.84
2023-01-17T10:41:42.245Z,98895.03
2023-01-17T10:44:29.443Z,98897.69
2023-01-17T10:47:18.262Z,98896.00
2023-01-17T10:49:49.082Z,98905.69
2023-01-17T10:52:27.833Z,98883.69
2023-01-17T10:55:03.903Z,98889.84
2023-01-17T10:57:37.684Z,98891.69
2023-01-17T11:00:18.162Z,98893.72
2023-01-17T11:02:49.573Z,98894.34
2023-01-17T11:05:31.001Z,98891.41
2023-01-17T11:08:15.733Z,98886.25
2023-01-17T11:10:57.175Z,98887.94
2023-01-17T11:13:29.154Z,98891.59
2023-01-17T11:16:02.187Z,98892.41
2023-01-17T11:18:31.611Z,98899.44
2023-01-17T11:21:20.780Z,98899.22
2023-01-17T11:23:50.840Z,98896.41
2023-01-17T11:26:28.477Z,98899.91
2023-01-17T11:29:26.643Z,98903.38
2023-01-17T11:31:56.166Z,98896.66
2023-01-17T11:34:25.579Z,98893.63
2023-01-17T11:37:19.256Z,98893.91
2023-01-17T11:39:48.200Z,98888.00
2023-01-17T11:42:40.997Z,98890.13
2023-01-17T11:45:37.329Z,98881.53
2023-01-17T11:48:10.965Z,98882.69
2023-01-17T11:50:40.486Z,98877.81
2023-01-17T11:53:19.096Z,98881.94
2023-01-17T11:56:09.610Z,98875.19
2023-01-17T11:58:40.208Z,98878.13
2023-01-17T12:01:26.041Z,98869.75
2023-01-17T12:04:22.798Z,98874.53
2023-01-17T12:07:09.304Z,98873.94
2023-01-17T12:09:49.733Z,98869.88
2023-01-17T12:12:40.804Z,98861.34
2023-01-17T12:15:44.940Z,98858.25
2023-01-17T12:18:56.077Z,98858.72
2023-01-17T12:21:40.672Z,98864.34
2023-01-17T12:24:19.194Z,98858.59
2023-01-17T12:26:54.727Z,98863.56
2023-01-17T12:29:23.905Z,98862.38
2023-01-17T12:32:17.286Z,98855.78
2023-01-17T12:34:50.852Z,98851.72
2023-01-17T12:37:36.967Z,98847.03
2023-01-17T12:40:25.478Z,98844.97
2023-01-17T12:42:59.048Z,98846.44
2023-01-17T12:45:45.208Z,98849.78
2023-01-17T12:48:19.905Z,98849.56
2023-01-17T12:51:05.855Z,98842.16
2023-01-17T12:53:42.285Z,98844.47
2023-01-17T12:56:11.472Z,98843.25
2023-01-17T12:58:52.001Z,98845.72
2023-01-17T13:01:30.898Z,98838.34
2023-01-17T13:04:11.070Z,98850.50
2023-01-17T13:06:43.679Z,98839.63
2023-01-17T13:09:13.998Z,98842.91
2023-01-17T13:11:49.749Z,98837.41
2023-01-17T13:14:16.487Z,98839.88
2023-01-17T13:16:54.631Z,98842.97
2023-01-17T13:19:32.097Z,98851.63
2023-01-17T13:22:02.252Z,98847.75
2023-01-17T13:24:55.664Z,98847.53
2023-01-17T13:27:35.341Z,98849.88
2023-01-17T13:30:36.453Z,98844.53
2023-01-17T13:33:31.651Z,98847.63
2023-01-17T13:36:12.973Z,98844.75
2023-01-17T13:39:06.024Z,98848.91
2023-01-17T13:41:47.348Z,98840.66
2023-01-17T13:44:21.603Z,98852.84
2023-01-17T13:47:01.104Z,98852.63
2023-01-17T13:49:34.195Z,98852.25
2023-01-17T13:52:12.073Z,98858.44
2023-01-17T13:54:50.760Z,98860.94
2023-01-17T13:57:23.377Z,98859.06
2023-01-17T13:59:50.191Z,98868.38
2023-01-17T14:02:31.899Z,98867.72
2023-01-17T14:05:18.266Z,98867.53
2023-01-17T14:07:47.868Z,98873.50
2023-01-17T14:10:29.005Z,98872.91
2023-01-17T14:12:56.319Z,98874.53
2023-01-17T14:15:27.010Z,98868.38
2023-01-17T14:18:01.755Z,98869.19
2023-01-17T14:20:43.132Z,98867.53
2023-01-17T14:23:25.170Z,98865.25
2023-01-17T14:25:52.625Z,98866.06
2023-01-17T14:28:30.022Z,98872.44
2023-01-17T14:30:59.026Z,98869.94
2023-01-17T14:33:39.510Z,98872.22
2023-01-17T14:36:14.321Z,98866.88
2023-01-17T14:38:43.754Z,98872.78
2023-01-17T14:41:17.584Z,98876.84
2023-01-17T14:43:45.410Z,98879.75
2023-01-17T14:46:27.622Z,98886.69
2023-01-17T14:49:02.689Z,98885.19
2023-01-17T14:51:30.007Z,98895.28
2023-01-17T14:53:58.936Z,98895.00
2023-01-17T14:56:28.074Z,98898.06
2023-01-17T14:59:23.720Z,98901.50
2023-01-17T15:02:06.683Z,98904.19
2023-01-17T15:04:39.891Z,98896.75
2023-01-17T15:07:07.563Z,98903.13
2023-01-17T15:09:37.735Z,98902.66
2023-01-17T15:12:08.404Z,98905.50
2023-01-17T15:14:39.686Z,98906.91
2023-01-17T15:17:24.939Z,98908.13
2023-01-17T15:19:56.742Z,98901.09
2023-01-17T15:22:25.963Z,98907.47
2023-01-17T15:24:53.819Z,98900.50
2023-01-17T15:27:20.875Z,98904.19
2023-01-17T15:29:48.054Z,98901.06
2023-01-17T15:32:27.944Z,98899.59
2023-01-17T15:34:54.598Z,98911.09
2023-01-17T15:37:29.798Z,98907.16
2023-01-17T15:40:18.832Z,98913.72
2023-01-17T15:42:49.941Z,98912.88
2023-01-17T15:45:20.181Z,98914.09
2023-01-17T15:47:46.975Z,98909.94
2023-01-17T15:50:29.955Z,98912.16
2023-01-17T15:53:03.641Z,98906.81
2023-01-17T15:55:38.671Z,98912.56
2023-01-17T15:58:23.033Z,98916.44
2023-01-17T16:00:49.603Z,98917.44
2023-01-17T16:03:29.968Z,98920.50
2023-01-17T16:06:00.149Z,98910.81
2023-01-17T16:08:33.003Z,98909.53
2023-01-17T16:11:06.046Z,98920.41
2023-01-17T16:13:35.750Z,98916.06
2023-01-17T16:16:27.214Z,98923.44
2023-01-17T16:18:59.971Z,98920.13
2023-01-17T16:21:28.871Z,98919.31
2023-01-17T16:23:56.352Z,98930.16
2023-01-17T16:26:23.703Z,98928.72
2023-01-17T16:28:51.167Z,98927.06
2023-01-17T16:31:18.530Z,98929.91
2023-01-17T16:33:46.059Z,98931.75
2023-01-17T16:36:15.117Z,98938.28
2023-01-17T16:38:42.766Z,98923.28
2023-01-17T16:41:09.649Z,98928.00
2023-01-17T16:43:36.514Z,98933.34
2023-01-17T16:46:03.106Z,98923.84
2023-01-17T16:48:29.815Z,98941.72
2023-01-17T16:50:56.400Z,98939.03
2023-01-17T16:53:25.423Z,98939.66
2023-01-17T16:55:55.517Z,98953.22
2023-01-17T16:58:22.329Z,98949.72
2023-01-17T17:00:48.958Z,98959.75
2023-01-17T17:03:17.570Z,98957.47
2023-01-17T17:05:47.047Z,98962.97
2023-01-17T17:08:15.268Z,98966.66
2023-01-17T17:10:41.790Z,98967.81
2023-01-17T17:13:08.411Z,98961.50
2023-01-17T17:15:34.997Z,98962.47
2023-01-17T17:18:01.597Z,98968.66
2023-01-17T17:20:28.235Z,98964.31
2023-01-17T17:22:54.763Z,98964.31
2023-01-17T17:25:21.546Z,98963.69
2023-01-17T17:27:48.064Z,98962.88
2023-01-17T17:30:14.872Z,98976.22
2023-01-17T17:32:45.405Z,98972.91
2023-01-17T17:35:11.935Z,98987.25
2023-01-17T17:37:38.684Z,98981.09
2023-01-17T17:40:05.855Z,98987.44
2023-01-17T17:42:32.802Z,98992.13
2023-01-17T17:44:59.303Z,99001.78
2023-01-17T17:47:25.771Z,99000.34
2023-01-17T17:49:52.520Z,99007.50
2023-01-17T17:52:19.080Z,99007.69
2023-01-17T17:54:45.593Z,99006.88
2023-01-17T17:57:12.198Z,99010.72
2023-01-17T17:59:38.738Z,99016.88
2023-01-17T18:02:11.036Z,99013.56
2023-01-17T18:04:38.271Z,99023.44
2023-01-17T18:07:04.966Z,99019.09
2023-01-17T18:09:31.518Z,99025.44
2023-01-17T18:11:58.273Z,99021.13
2023-01-17T18:14:24.864Z,99028.28
2023-01-17T18:16:51.760Z,99030.97
2023-01-17T18:19:21.099Z,99036.50
2023-01-17T18:21:48.689Z,99038.16
2023-01-17T18:24:16.995Z,99040.16
2023-01-17T18:26:46.253Z,99042.00
2023-01-17T18:29:15.755Z,99050.00
2023-01-17T18:31:44.294Z,99052.69
2023-01-17T18:34:13.632Z,99057.38
2023-01-17T18:36:40.605Z,99060.88
2023-01-17T18:39:16.079Z,99064.72
2023-01-17T18:41:42.734Z,99063.91
2023-01-17T18:44:10.003Z,99070.25
2023-01-17T18:46:37.501Z,99076.56
2023-01-17T18:49:04.827Z,99074.94
2023-01-17T18:51:33.315Z,99079.44
2023-01-17T18:54:02.854Z,99076.97
2023-01-17T18:56:31.027Z,99085.13
2023-01-17T18:58:58.045Z,99083.47
2023-01-17T19:01:35.390Z,99086.34
2023-01-17T19:04:04.192Z,99087.31
2023-01-17T19:06:37.513Z,99085.03
2023-01-17T19:09:06.395Z,99084.84
2023-01-17T19:11:34.131Z,99090.38
2023-01-17T19:14:00.713Z,99096.69
2023-01-17T19:16:30.265Z,99090.72
2023-01-17T19:19:01.689Z,99095.22
2023-01-17T19:21:28.551Z,99093.56
2023-01-17T19:23:56.731Z,99099.91
2023-01-17T19:26:24.975Z,99101.75
2023-01-17T19:28:51.772Z,99107.06
2023-01-17T19:31:24.126Z,99102.09
2023-01-17T19:33:55.977Z,99114.59
2023-01-17T19:36:28.040Z,99111.94
2023-01-17T19:39:04.434Z,99115.63
2023-01-17T19:41:36.572Z,99116.78
2023-01-17T19:44:08.422Z,99115.13
2023-01-17T19:46:35.842Z,99115.13
2023-01-17T19:49:05.498Z,99119.00
2023-01-17T19:51:32.015Z,99122.50
2023-01-17T19:54:01.842Z,99128.19
2023-01-17T19:56:29.758Z,99131.88
2023-01-17T19:59:00.690Z,99130.19
2023-01-17T20:01:30.482Z,99130.38
2023-01-17T20:03:58.415Z,99129.34
2023-01-17T20:06:29.003Z,99127.88
2023-01-17T20:08:56.461Z,99127.03
2023-01-17T20:11:24.784Z,99126.19
2023-01-17T20:13:54.209Z,99119.22
2023-01-17T20:16:21.349Z,99119.41
2023-01-17T20:18:48.319Z,99120.38
2023-01-17T20:21:19.233Z,99126.72
2023-01-17T20:23:47.484Z,99122.41
2023-01-17T20:26:15.862Z,99128.75
2023-01-17T20:28:44.427Z,99127.25
2023-01-17T20:31:14.293Z,99130.94
2023-01-17T20:33:43.120Z,99133.59
2023-01-17T20:36:12.368Z,99133.59
2023-01-17T20:38:45.504Z,99137.44
2023-01-17T20:41:39.629Z,99135.13
2023-01-17T20:44:09.263Z,99144.63
2023-01-17T20:46:40.607Z,99140.28
2023-01-17T20:49:14.742Z,99141.31
2023-01-17T20:51:44.063Z,99142.28
2023-01-17T20:54:14.262Z,99145.16
2023-01-17T20:56:41.509Z,99151.50
2023-01-17T20:59:12.055Z,99148.97
2023-01-17T21:01:39.249Z,99149.81
2023-01-17T21:04:10.034Z,99145.66
2023-01-17T21:06:38.851Z,99142.19
2023-01-17T21:09:07.279Z,99149.34
2023-01-17T21:11:34.431Z,99144.00
2023-01-17T21:14:01.877Z,99147.66
2023-01-17T21:16:28.928Z,99149.50
2023-01-17T21:18:55.737Z,99146.19
2023-01-17T21:21:25.260Z,99156.00
2023-01-17T21:23:54.476Z,99154.34
2023-01-17T21:26:22.788Z,99154.53
2023-01-17T21:28:50.704Z,99157.19
2023-01-17T21:31:26.610Z,99158.38
2023-01-17T21:33:57.173Z,99155.69
2023-01-17T21:36:26.116Z,99159.19
2023-01-17T21:38:56.896Z,99160.03
2023-01-17T21:41:26.413Z,99160.03
2023-01-17T21:44:16.458Z,99159.38
2023-01-17T21:46:43.008Z,99159.19
2023-01-17T21:49:11.762Z,99161.84
2023-01-17T21:52:06.202Z,99159.19
2023-01-17T21:54:50.902Z,99162.03
2023-01-17T21:57:38.745Z,99161.03
2023-01-17T22:00:08.758Z,99155.34
2023-01-17T22:02:35.327Z,99159.03
2023-01-17T22:05:01.869Z,99155.69
2023-01-17T22:07:29.036Z,99154.88
2023-01-17T22:09:56.896Z,99159.38
2023-01-17T22:12:23.861Z,99166.53
2023-01-17T22:14:50.351Z,99159.56
2023-01-17T22:17:16.875Z,99167.72
2023-01-17T22:19:45.877Z,99172.41
2023-01-17T22:22:12.509Z,99174.88
2023-01-17T22:24:40.291Z,99171.38
2023-01-17T22:27:09.875Z,99172.41
2023-01-17T22:29:39.254Z,99176.91
2023-01-17T22:32:05.780Z,99179.56
2023-01-17T22:34:32.280Z,99182.38
2023-01-17T22:36:58.987Z,99175.41
2023-01-17T22:39:25.508Z,99178.06
2023-01-17T22:41:52.028Z,99179.91
2023-01-17T22:44:18.543Z,99179.06
2023-01-17T22:46:45.156Z,99182.56
2023-01-17T22:49:13.221Z,99182.56
2023-01-17T22:51:39.732Z,99180.91
2023-01-17T22:54:06.330Z,99179.06
2023-01-17T22:56:33.780Z,99183.59
2023-01-17T22:59:01.841Z,99184.41
2023-01-17T23:01:30.930Z,99187.06
2023-01-17T23:04:00.273Z,99185.25
2023-01-17T23:06:32.231Z,99187.06
2023-01-17T23:09:02.392Z,99182.56
2023-01-17T23:11:39.158Z,99181.75
2023-01-17T23:14:11.577Z,99181.75
2023-01-17T23:16:58.642Z,99186.25
2023-01-17T23:19:28.042Z,99184.56
2023-01-17T23:22:16.384Z,99198.72
2023-01-17T23:24:56.031Z,99182.06
2023-01-17T23:28:01.914Z,99184.03
2023-01-17T23:30:40.198Z,99179.56
2023-01-17T23:33:09.224Z,99179.72
2023-01-17T23:35:41.692Z,99193.03
2023-01-17T23:38:29.023Z,99193.38
2023-01-17T23:41:25.780Z,99189.72
2023-01-17T23:43:54.006Z,99190.56
2023-01-17T23:46:20.615Z,99182.72
2023-01-17T23:48:47.716Z,99189.06
2023-01-17T23:51:14.430Z,99186.41
2023-01-17T23:53:41.491Z,99190.91
2023-01-17T23:56:18.472Z,99183.09
2023-01-17T23:58:45.476Z,99190.06
